createdAt,value
2019-03-27T00:00:59.297Z,997.15
2019-03-27T00:01:59.243Z,997.12
2019-03-27T00:02:59.178Z,997.13
2019-03-27T00:03:59.121Z,997.14
2019-03-27T00:04:59.060Z,997.14
2019-03-27T00:05:59.001Z,997.10
2019-03-27T00:06:58.942Z,997.08
2019-03-27T00:07:58.883Z,997.08
2019-03-27T00:08:58.827Z,997.09
2019-03-27T00:09:58.764Z,997.10
2019-03-27T00:10:58.704Z,997.11
2019-03-27T00:11:58.644Z,997.08
2019-03-27T00:12:58.587Z,997.06
2019-03-27T00:13:58.527Z,997.11
2019-03-27T00:15:11.660Z,997.07
2019-03-27T00:15:58.408Z,997.06
2019-03-27T00:16:58.350Z,997.04
2019-03-27T00:17:58.291Z,997.04
2019-03-27T00:18:58.231Z,997.05
2019-03-27T00:19:58.171Z,997.02
2019-03-27T00:20:58.113Z,997.00
2019-03-27T00:21:58.052Z,997.00
2019-03-27T00:22:57.993Z,996.99
2019-03-27T00:23:57.934Z,997.01
2019-03-27T00:24:57.876Z,996.97
2019-03-27T00:25:57.818Z,996.95
2019-03-27T00:26:57.758Z,996.96
2019-03-27T00:27:57.703Z,996.95
2019-03-27T00:28:57.637Z,996.90
2019-03-27T00:29:57.583Z,996.93
2019-03-27T00:30:57.518Z,996.91
2019-03-27T00:31:57.459Z,996.96
2019-03-27T00:32:57.400Z,996.92
2019-03-27T00:33:57.341Z,996.97
2019-03-27T00:34:57.285Z,996.92
2019-03-27T00:35:57.221Z,996.88
2019-03-27T00:36:57.162Z,996.91
2019-03-27T00:37:57.104Z,996.92
2019-03-27T00:38:57.043Z,996.90
2019-03-27T00:39:56.986Z,996.90
2019-03-27T00:40:56.926Z,996.86
2019-03-27T00:41:56.866Z,996.88
2019-03-27T00:42:56.814Z,996.89
2019-03-27T00:43:56.750Z,996.91
2019-03-27T00:44:56.691Z,996.91
2019-03-27T00:45:56.630Z,996.96
2019-03-27T00:46:56.573Z,996.95
2019-03-27T00:47:56.515Z,996.94
2019-03-27T00:48:56.456Z,996.92
2019-03-27T00:49:56.392Z,996.90
2019-03-27T00:50:56.333Z,996.90
2019-03-27T00:51:56.273Z,996.95
2019-03-27T00:52:56.214Z,996.92
2019-03-27T00:53:56.156Z,996.98
2019-03-27T00:54:56.096Z,996.96
2019-03-27T00:55:56.035Z,996.95
2019-03-27T00:56:55.987Z,996.92
2019-03-27T00:57:55.919Z,996.96
2019-03-27T00:58:55.858Z,996.95
2019-03-27T00:59:55.799Z,996.92
2019-03-27T01:00:55.739Z,996.91
2019-03-27T01:01:55.682Z,996.86
2019-03-27T01:02:55.625Z,996.85
2019-03-27T01:03:55.564Z,996.85
2019-03-27T01:04:55.502Z,996.90
2019-03-27T01:05:55.443Z,996.86
2019-03-27T01:06:55.384Z,996.84
2019-03-27T01:07:55.324Z,996.83
2019-03-27T01:08:55.265Z,996.85
2019-03-27T01:09:55.206Z,996.84
2019-03-27T01:10:55.146Z,996.84
2019-03-27T01:11:55.087Z,996.87
2019-03-27T01:12:55.028Z,996.84
2019-03-27T01:13:54.972Z,996.88
2019-03-27T01:14:54.908Z,996.85
2019-03-27T01:15:54.860Z,996.84
2019-03-27T01:16:54.791Z,996.85
2019-03-27T01:17:54.731Z,996.87
2019-03-27T01:18:54.674Z,996.83
2019-03-27T01:19:54.612Z,996.86
2019-03-27T01:20:54.554Z,996.87
2019-03-27T01:21:54.505Z,996.89
2019-03-27T01:22:54.437Z,996.90
2019-03-27T01:23:54.378Z,996.89
2019-03-27T01:24:54.316Z,996.86
2019-03-27T01:25:54.257Z,996.85
2019-03-27T01:26:54.198Z,996.83
2019-03-27T01:27:54.137Z,996.81
2019-03-27T01:28:54.083Z,996.81
2019-03-27T01:29:54.020Z,996.79
2019-03-27T01:30:53.966Z,996.76
2019-03-27T01:31:53.901Z,996.72
2019-03-27T01:32:53.843Z,996.73
2019-03-27T01:33:53.784Z,996.70
2019-03-27T01:34:53.723Z,996.66
2019-03-27T01:35:53.663Z,996.71
2019-03-27T01:36:53.605Z,996.67
2019-03-27T01:37:53.554Z,996.72
2019-03-27T01:38:53.486Z,996.66
2019-03-27T01:39:53.426Z,996.70
2019-03-27T01:40:53.368Z,996.73
2019-03-27T01:41:53.308Z,996.73
2019-03-27T01:42:53.247Z,996.77
2019-03-27T01:43:53.188Z,996.75
2019-03-27T01:44:53.129Z,996.72
2019-03-27T01:45:53.563Z,996.75
2019-03-27T01:46:53.010Z,996.77
2019-03-27T01:47:52.952Z,996.78
2019-03-27T01:48:52.893Z,996.72
2019-03-27T01:49:52.833Z,996.72
2019-03-27T01:50:52.775Z,996.75
2019-03-27T01:51:52.718Z,996.69
2019-03-27T01:52:52.656Z,996.70
2019-03-27T01:53:52.599Z,996.70
2019-03-27T01:54:52.541Z,996.68
2019-03-27T01:55:52.478Z,996.66
2019-03-27T01:56:52.427Z,996.66
2019-03-27T01:57:52.361Z,996.69
2019-03-27T01:58:52.298Z,996.63
2019-03-27T01:59:52.251Z,996.62
2019-03-27T02:00:52.190Z,996.68
2019-03-27T02:01:52.120Z,996.62
2019-03-27T02:02:52.063Z,996.69
2019-03-27T02:03:52.005Z,996.67
2019-03-27T02:04:51.944Z,996.68
2019-03-27T02:05:51.894Z,996.70
2019-03-27T02:06:51.823Z,996.70
2019-03-27T02:07:51.766Z,996.68
2019-03-27T02:08:51.709Z,996.72
2019-03-27T02:09:51.651Z,996.74
2019-03-27T02:10:51.588Z,996.70
2019-03-27T02:11:51.528Z,996.72
2019-03-27T02:12:51.468Z,996.72
2019-03-27T02:13:51.409Z,996.75
2019-03-27T02:14:51.349Z,996.74
2019-03-27T02:15:51.292Z,996.72
2019-03-27T02:16:51.233Z,996.74
2019-03-27T02:17:51.172Z,996.66
2019-03-27T02:18:51.123Z,996.68
2019-03-27T02:19:51.053Z,996.70
2019-03-27T02:20:50.993Z,996.70
2019-03-27T02:21:50.935Z,996.70
2019-03-27T02:22:50.881Z,996.66
2019-03-27T02:23:50.815Z,996.71
2019-03-27T02:24:50.756Z,996.74
2019-03-27T02:25:50.699Z,996.71
2019-03-27T02:26:50.637Z,996.74
2019-03-27T02:27:50.580Z,996.72
2019-03-27T02:28:50.518Z,996.69
2019-03-27T02:29:50.459Z,996.69
2019-03-27T02:30:50.408Z,996.71
2019-03-27T02:31:50.345Z,996.71
2019-03-27T02:32:50.285Z,996.73
2019-03-27T02:33:50.224Z,996.69
2019-03-27T02:34:50.253Z,996.70
2019-03-27T02:35:50.103Z,996.74
2019-03-27T02:36:50.047Z,996.75
2019-03-27T02:37:49.986Z,996.74
2019-03-27T02:38:49.939Z,996.73
2019-03-27T02:39:49.867Z,996.76
2019-03-27T02:40:49.807Z,996.83
2019-03-27T02:41:49.749Z,996.81
2019-03-27T02:42:49.707Z,996.87
2019-03-27T02:43:49.633Z,996.85
2019-03-27T02:44:49.580Z,996.87
2019-03-27T02:45:49.510Z,996.92
2019-03-27T02:46:49.466Z,996.94
2019-03-27T02:47:49.395Z,996.89
2019-03-27T02:48:49.332Z,996.89
2019-03-27T02:49:49.274Z,996.88
2019-03-27T02:50:49.215Z,996.89
2019-03-27T02:51:49.155Z,996.91
2019-03-27T02:52:49.095Z,996.89
2019-03-27T02:53:49.048Z,996.93
2019-03-27T02:54:48.976Z,996.93
2019-03-27T02:55:48.916Z,996.93
2019-03-27T02:56:48.861Z,996.93
2019-03-27T02:57:48.803Z,996.93
2019-03-27T02:58:48.766Z,996.94
2019-03-27T02:59:48.680Z,996.94
2019-03-27T03:00:48.619Z,996.94
2019-03-27T03:01:48.663Z,996.93
2019-03-27T03:02:48.502Z,996.88
2019-03-27T03:03:48.442Z,996.88
2019-03-27T03:04:48.383Z,996.90
2019-03-27T03:05:48.327Z,996.92
2019-03-27T03:06:48.264Z,996.84
2019-03-27T03:07:48.210Z,996.87
2019-03-27T03:08:48.147Z,996.86
2019-03-27T03:09:48.090Z,996.82
2019-03-27T03:10:48.032Z,996.87
2019-03-27T03:11:47.967Z,996.84
2019-03-27T03:12:47.908Z,996.83
2019-03-27T03:13:47.858Z,996.82
2019-03-27T03:14:47.790Z,996.82
2019-03-27T03:15:47.729Z,996.75
2019-03-27T03:16:47.676Z,996.75
2019-03-27T03:17:47.612Z,996.74
2019-03-27T03:18:47.592Z,996.79
2019-03-27T03:19:47.491Z,996.73
2019-03-27T03:20:47.441Z,996.76
2019-03-27T03:21:47.386Z,996.79
2019-03-27T03:22:47.313Z,996.78
2019-03-27T03:23:47.327Z,996.78
2019-03-27T03:24:47.198Z,996.80
2019-03-27T03:25:47.227Z,996.79
2019-03-27T03:26:50.460Z,996.82
2019-03-27T03:27:47.024Z,996.78
2019-03-27T03:28:46.958Z,996.81
2019-03-27T03:29:46.904Z,996.76
2019-03-27T03:30:46.856Z,996.80
2019-03-27T03:31:46.793Z,996.81
2019-03-27T03:32:46.722Z,996.85
2019-03-27T03:33:46.678Z,996.84
2019-03-27T03:34:46.608Z,996.85
2019-03-27T03:35:46.555Z,996.86
2019-03-27T03:36:46.483Z,996.85
2019-03-27T03:37:46.424Z,996.85
2019-03-27T03:38:46.363Z,996.84
2019-03-27T03:39:46.304Z,996.83
2019-03-27T03:40:46.244Z,996.87
2019-03-27T03:41:46.185Z,996.82
2019-03-27T03:42:46.124Z,996.84
2019-03-27T03:43:46.068Z,996.87
2019-03-27T03:44:46.009Z,996.86
2019-03-27T03:45:45.948Z,996.88
2019-03-27T03:46:58.852Z,996.91
2019-03-27T03:47:45.827Z,996.88
2019-03-27T03:48:45.772Z,996.91
2019-03-27T03:49:45.711Z,996.90
2019-03-27T03:50:45.655Z,996.89
2019-03-27T03:51:45.590Z,996.92
2019-03-27T03:52:46.105Z,996.92
2019-03-27T03:53:45.471Z,996.90
2019-03-27T03:54:45.412Z,996.88
2019-03-27T03:55:45.358Z,996.94
2019-03-27T03:56:45.295Z,996.92
2019-03-27T03:57:45.238Z,996.92
2019-03-27T03:58:45.175Z,996.85
2019-03-27T03:59:45.116Z,996.91
2019-03-27T04:00:45.058Z,996.88
2019-03-27T04:01:44.998Z,996.87
2019-03-27T04:02:44.940Z,996.84
2019-03-27T04:03:44.883Z,996.89
2019-03-27T04:04:44.821Z,996.90
2019-03-27T04:05:44.761Z,996.92
2019-03-27T04:06:44.700Z,996.92
2019-03-27T04:07:44.653Z,996.95
2019-03-27T04:08:44.582Z,996.91
2019-03-27T04:09:44.523Z,996.89
2019-03-27T04:10:44.519Z,996.92
2019-03-27T04:11:44.404Z,996.88
2019-03-27T04:12:44.344Z,996.88
2019-03-27T04:13:44.286Z,996.92
2019-03-27T04:14:44.224Z,996.92
2019-03-27T04:15:44.166Z,996.95
2019-03-27T04:16:44.107Z,996.95
2019-03-27T04:17:44.050Z,996.95
2019-03-27T04:18:43.990Z,996.95
2019-03-27T04:19:43.927Z,996.96
2019-03-27T04:20:43.868Z,996.97
2019-03-27T04:21:43.811Z,996.95
2019-03-27T04:22:43.750Z,996.94
2019-03-27T04:23:43.689Z,996.94
2019-03-27T04:24:43.632Z,996.94
2019-03-27T04:26:08.345Z,996.93
2019-03-27T04:26:43.512Z,996.91
2019-03-27T04:27:43.451Z,996.90
2019-03-27T04:28:43.395Z,996.91
2019-03-27T04:29:43.334Z,996.89
2019-03-27T04:30:43.275Z,996.96
2019-03-27T04:31:43.218Z,996.90
2019-03-27T04:32:43.155Z,996.92
2019-03-27T04:33:43.096Z,996.91
2019-03-27T04:34:46.922Z,996.88
2019-03-27T04:35:42.978Z,996.93
2019-03-27T04:36:42.917Z,996.92
2019-03-27T04:37:42.861Z,996.90
2019-03-27T04:38:42.800Z,996.90
2019-03-27T04:39:42.742Z,996.89
2019-03-27T04:40:42.680Z,996.93
2019-03-27T04:41:42.620Z,996.91
2019-03-27T04:42:42.565Z,996.90
2019-03-27T04:43:42.502Z,996.89
2019-03-27T04:44:42.441Z,996.96
2019-03-27T04:45:42.389Z,996.93
2019-03-27T04:46:42.335Z,996.93
2019-03-27T04:47:42.263Z,996.91
2019-03-27T04:48:42.204Z,996.94
2019-03-27T04:49:42.147Z,996.92
2019-03-27T04:50:42.084Z,996.90
2019-03-27T04:51:42.031Z,996.90
2019-03-27T04:52:41.967Z,996.92
2019-03-27T04:53:41.909Z,996.94
2019-03-27T04:54:41.850Z,996.96
2019-03-27T04:55:41.793Z,996.95
2019-03-27T04:56:41.730Z,996.95
2019-03-27T04:57:41.671Z,996.96
2019-03-27T04:58:41.611Z,996.94
2019-03-27T04:59:41.551Z,996.97
2019-03-27T05:00:41.491Z,997.00
2019-03-27T05:01:41.435Z,996.96
2019-03-27T05:02:41.372Z,997.01
2019-03-27T05:03:41.311Z,996.99
2019-03-27T05:04:41.252Z,997.00
2019-03-27T05:05:41.195Z,997.07
2019-03-27T05:06:41.151Z,997.07
2019-03-27T05:07:41.074Z,997.09
2019-03-27T05:08:41.014Z,997.09
2019-03-27T05:09:40.955Z,997.12
2019-03-27T05:10:40.898Z,997.13
2019-03-27T05:11:40.836Z,997.15
2019-03-27T05:12:40.776Z,997.11
2019-03-27T05:13:40.719Z,997.14
2019-03-27T05:14:40.659Z,997.19
2019-03-27T05:15:40.601Z,997.16
2019-03-27T05:16:40.540Z,997.17
2019-03-27T05:17:46.242Z,997.17
2019-03-27T05:18:40.422Z,997.19
2019-03-27T05:19:40.361Z,997.19
2019-03-27T05:20:40.367Z,997.21
2019-03-27T05:21:40.247Z,997.24
2019-03-27T05:22:40.182Z,997.23
2019-03-27T05:23:40.123Z,997.23
2019-03-27T05:24:40.065Z,997.22
2019-03-27T05:25:40.004Z,997.25
2019-03-27T05:26:39.947Z,997.27
2019-03-27T05:27:39.885Z,997.27
2019-03-27T05:28:39.826Z,997.26
2019-03-27T05:29:39.768Z,997.28
2019-03-27T05:30:39.709Z,997.26
2019-03-27T05:31:39.649Z,997.22
2019-03-27T05:32:41.411Z,997.26
2019-03-27T05:33:39.533Z,997.25
2019-03-27T05:34:39.473Z,997.25
2019-03-27T05:35:39.412Z,997.22
2019-03-27T05:36:39.349Z,997.27
2019-03-27T05:37:39.291Z,997.28
2019-03-27T05:38:39.245Z,997.29
2019-03-27T05:39:39.175Z,997.30
2019-03-27T05:40:39.113Z,997.32
2019-03-27T05:41:39.052Z,997.31
2019-03-27T05:42:38.992Z,997.32
2019-03-27T05:43:59.921Z,997.38
2019-03-27T05:44:38.873Z,997.38
2019-03-27T05:45:38.814Z,997.40
2019-03-27T05:46:38.755Z,997.40
2019-03-27T05:47:38.695Z,997.44
2019-03-27T05:48:38.637Z,997.45
2019-03-27T05:49:38.577Z,997.47
2019-03-27T05:50:38.517Z,997.46
2019-03-27T05:51:38.457Z,997.51
2019-03-27T05:52:38.398Z,997.55
2019-03-27T05:53:38.338Z,997.53
2019-03-27T05:54:38.286Z,997.54
2019-03-27T05:55:38.219Z,997.50
2019-03-27T05:56:38.162Z,997.52
2019-03-27T05:57:38.101Z,997.51
2019-03-27T05:58:38.042Z,997.50
2019-03-27T05:59:37.981Z,997.52
2019-03-27T06:00:37.925Z,997.46
2019-03-27T06:01:37.864Z,997.49
2019-03-27T06:02:37.803Z,997.43
2019-03-27T06:03:37.742Z,997.52
2019-03-27T06:04:37.683Z,997.50
2019-03-27T06:05:37.625Z,997.48
2019-03-27T06:06:37.564Z,997.51
2019-03-27T06:07:37.505Z,997.50
2019-03-27T06:08:37.447Z,997.55
2019-03-27T06:09:37.387Z,997.53
2019-03-27T06:10:37.326Z,997.56
2019-03-27T06:11:37.267Z,997.58
2019-03-27T06:12:37.209Z,997.54
2019-03-27T06:13:37.149Z,997.51
2019-03-27T06:14:37.090Z,997.53
2019-03-27T06:15:37.029Z,997.57
2019-03-27T06:16:36.972Z,997.54
2019-03-27T06:17:36.910Z,997.55
2019-03-27T06:18:36.851Z,997.58
2019-03-27T06:19:36.791Z,997.58
2019-03-27T06:20:36.732Z,997.59
2019-03-27T06:21:36.673Z,997.59
2019-03-27T06:22:36.612Z,997.56
2019-03-27T06:23:36.553Z,997.64
2019-03-27T06:24:36.494Z,997.64
2019-03-27T06:25:36.450Z,997.63
2019-03-27T06:26:36.374Z,997.64
2019-03-27T06:27:36.316Z,997.65
2019-03-27T06:28:36.255Z,997.65
2019-03-27T06:29:36.196Z,997.63
2019-03-27T06:30:36.146Z,997.66
2019-03-27T06:31:36.077Z,997.61
2019-03-27T06:32:36.018Z,997.62
2019-03-27T06:33:35.962Z,997.63
2019-03-27T06:34:35.899Z,997.62
2019-03-27T06:35:35.840Z,997.66
2019-03-27T06:36:35.781Z,997.64
2019-03-27T06:37:35.725Z,997.67
2019-03-27T06:38:35.662Z,997.72
2019-03-27T06:39:35.601Z,997.74
2019-03-27T06:40:35.541Z,997.69
2019-03-27T06:41:35.483Z,997.71
2019-03-27T06:42:35.422Z,997.73
2019-03-27T06:43:35.364Z,997.72
2019-03-27T06:44:35.305Z,997.72
2019-03-27T06:45:35.245Z,997.72
2019-03-27T06:46:35.184Z,997.66
2019-03-27T06:47:35.129Z,997.66
2019-03-27T06:48:35.066Z,997.65
2019-03-27T06:49:35.010Z,997.71
2019-03-27T06:50:34.945Z,997.68
2019-03-27T06:51:40.377Z,997.67
2019-03-27T06:52:34.833Z,997.69
2019-03-27T06:53:34.771Z,997.73
2019-03-27T06:54:34.714Z,997.74
2019-03-27T06:55:34.648Z,997.78
2019-03-27T06:56:34.593Z,997.78
2019-03-27T06:57:34.531Z,997.79
2019-03-27T06:58:34.471Z,997.83
2019-03-27T06:59:34.413Z,997.77
2019-03-27T07:00:34.352Z,997.80
2019-03-27T07:01:34.292Z,997.75
2019-03-27T07:02:34.235Z,997.79
2019-03-27T07:03:34.172Z,997.78
2019-03-27T07:04:34.118Z,997.76
2019-03-27T07:05:34.054Z,997.80
2019-03-27T07:06:33.993Z,997.82
2019-03-27T07:07:33.935Z,997.83
2019-03-27T07:08:33.875Z,997.83
2019-03-27T07:09:33.818Z,997.87
2019-03-27T07:10:33.759Z,997.89
2019-03-27T07:11:33.698Z,997.85
2019-03-27T07:12:33.637Z,997.88
2019-03-27T07:13:33.579Z,997.89
2019-03-27T07:14:33.521Z,997.90
2019-03-27T07:15:35.779Z,997.84
2019-03-27T07:16:33.399Z,997.89
2019-03-27T07:17:33.342Z,997.89
2019-03-27T07:18:40.066Z,997.86
2019-03-27T07:19:33.223Z,997.86
2019-03-27T07:20:33.164Z,997.91
2019-03-27T07:21:33.102Z,997.94
2019-03-27T07:22:33.042Z,997.90
2019-03-27T07:23:32.983Z,997.94
2019-03-27T07:24:32.925Z,997.91
2019-03-27T07:25:32.865Z,997.95
2019-03-27T07:26:32.803Z,997.92
2019-03-27T07:27:32.748Z,997.89
2019-03-27T07:28:32.687Z,997.90
2019-03-27T07:29:32.626Z,997.85
2019-03-27T07:30:32.565Z,997.89
2019-03-27T07:31:32.507Z,997.90
2019-03-27T07:32:32.450Z,997.90
2019-03-27T07:33:32.387Z,997.89
2019-03-27T07:34:32.335Z,997.89
2019-03-27T07:35:32.268Z,997.88
2019-03-27T07:36:32.212Z,997.89
2019-03-27T07:37:32.152Z,997.94
2019-03-27T07:38:32.092Z,997.92
2019-03-27T07:39:32.030Z,997.98
2019-03-27T07:40:31.971Z,997.99
2019-03-27T07:41:31.912Z,998.04
2019-03-27T07:42:31.854Z,998.07
2019-03-27T07:43:31.795Z,998.04
2019-03-27T07:44:31.733Z,998.12
2019-03-27T07:45:31.675Z,998.09
2019-03-27T07:46:31.618Z,998.07
2019-03-27T07:47:31.555Z,998.10
2019-03-27T07:48:31.495Z,998.11
2019-03-27T07:49:31.436Z,998.14
2019-03-27T07:50:31.376Z,998.24
2019-03-27T07:51:31.316Z,998.22
2019-03-27T07:52:31.257Z,998.21
2019-03-27T07:53:31.200Z,998.23
2019-03-27T07:54:31.137Z,998.23
2019-03-27T07:55:31.080Z,998.26
2019-03-27T07:56:31.019Z,998.21
2019-03-27T07:57:30.961Z,998.21
2019-03-27T07:58:30.900Z,998.31
2019-03-27T07:59:30.843Z,998.26
2019-03-27T08:00:30.789Z,998.32
2019-03-27T08:01:30.727Z,998.27
2019-03-27T08:02:30.662Z,998.26
2019-03-27T08:03:30.608Z,998.28
2019-03-27T08:04:30.545Z,998.27
2019-03-27T08:05:30.493Z,998.26
2019-03-27T08:06:30.426Z,998.26
2019-03-27T08:07:30.372Z,998.24
2019-03-27T08:08:30.306Z,998.22
2019-03-27T08:09:30.253Z,998.24
2019-03-27T08:10:30.186Z,998.26
2019-03-27T08:11:30.199Z,998.26
2019-03-27T08:12:30.067Z,998.31
2019-03-27T08:13:30.011Z,998.28
2019-03-27T08:14:29.948Z,998.29
2019-03-27T08:15:29.889Z,998.27
2019-03-27T08:16:29.829Z,998.29
2019-03-27T08:17:29.771Z,998.30
2019-03-27T08:18:29.710Z,998.20
2019-03-27T08:19:29.651Z,998.29
2019-03-27T08:20:29.593Z,998.23
2019-03-27T08:21:31.150Z,998.29
2019-03-27T08:22:29.476Z,998.26
2019-03-27T08:23:29.413Z,998.27
2019-03-27T08:24:29.356Z,998.25
2019-03-27T08:25:29.294Z,998.33
2019-03-27T08:26:29.235Z,998.21
2019-03-27T08:27:29.174Z,998.21
2019-03-27T08:28:29.118Z,998.22
2019-03-27T08:29:29.056Z,998.18
2019-03-27T08:30:28.997Z,998.15
2019-03-27T08:31:28.941Z,998.14
2019-03-27T08:32:28.879Z,998.20
2019-03-27T08:33:28.818Z,998.12
2019-03-27T08:34:28.764Z,998.19
2019-03-27T08:35:28.699Z,998.16
2019-03-27T08:36:28.639Z,998.16
2019-03-27T08:37:28.580Z,998.16
2019-03-27T08:38:28.525Z,998.18
2019-03-27T08:39:28.462Z,998.24
2019-03-27T08:40:28.403Z,998.18
2019-03-27T08:41:28.346Z,998.19
2019-03-27T08:42:28.285Z,998.18
2019-03-27T08:43:28.229Z,998.18
2019-03-27T08:44:28.165Z,998.19
2019-03-27T08:45:28.123Z,998.18
2019-03-27T08:46:28.045Z,998.17
2019-03-27T08:47:27.985Z,998.16
2019-03-27T08:48:27.926Z,998.21
2019-03-27T08:49:27.867Z,998.17
2019-03-27T08:50:27.807Z,998.17
2019-03-27T08:51:27.749Z,998.19
2019-03-27T08:52:27.688Z,998.30
2019-03-27T08:53:27.629Z,998.33
2019-03-27T08:54:27.570Z,998.29
2019-03-27T08:55:27.512Z,998.36
2019-03-27T08:56:27.454Z,998.34
2019-03-27T08:57:27.392Z,998.37
2019-03-27T08:58:27.333Z,998.39
2019-03-27T08:59:27.272Z,998.38
2019-03-27T09:00:27.216Z,998.39
2019-03-27T09:01:27.154Z,998.37
2019-03-27T09:02:27.096Z,998.33
2019-03-27T09:03:27.035Z,998.31
2019-03-27T09:04:26.976Z,998.31
2019-03-27T09:05:26.916Z,998.32
2019-03-27T09:06:33.515Z,998.43
2019-03-27T09:07:26.796Z,998.41
2019-03-27T09:08:26.737Z,998.39
2019-03-27T09:09:26.679Z,998.35
2019-03-27T09:10:26.619Z,998.41
2019-03-27T09:11:26.561Z,998.37
2019-03-27T09:12:26.500Z,998.32
2019-03-27T09:13:26.441Z,998.35
2019-03-27T09:14:26.383Z,998.33
2019-03-27T09:15:26.321Z,998.36
2019-03-27T09:16:26.263Z,998.38
2019-03-27T09:17:26.203Z,998.39
2019-03-27T09:18:26.143Z,998.37
2019-03-27T09:19:35.508Z,998.40
2019-03-27T09:20:26.024Z,998.37
2019-03-27T09:21:25.965Z,998.35
2019-03-27T09:22:25.925Z,998.37
2019-03-27T09:23:25.846Z,998.32
2019-03-27T09:24:25.786Z,998.34
2019-03-27T09:25:25.728Z,998.31
2019-03-27T09:26:25.668Z,998.33
2019-03-27T09:27:25.608Z,998.29
2019-03-27T09:28:25.549Z,998.35
2019-03-27T09:29:25.491Z,998.28
2019-03-27T09:30:25.433Z,998.34
2019-03-27T09:31:25.371Z,998.31
2019-03-27T09:32:25.316Z,998.31
2019-03-27T09:33:25.252Z,998.33
2019-03-27T09:34:25.193Z,998.31
2019-03-27T09:35:25.134Z,998.33
2019-03-27T09:36:25.074Z,998.30
2019-03-27T09:37:25.015Z,998.31
2019-03-27T09:38:24.956Z,998.30
2019-03-27T09:39:24.896Z,998.32
2019-03-27T09:40:24.843Z,998.31
2019-03-27T09:41:24.781Z,998.31
2019-03-27T09:42:24.719Z,998.30
2019-03-27T09:43:24.659Z,998.26
2019-03-27T09:44:24.600Z,998.30
2019-03-27T09:45:24.607Z,998.29
2019-03-27T09:46:24.480Z,998.27
2019-03-27T09:47:24.422Z,998.34
2019-03-27T09:48:24.362Z,998.30
2019-03-27T09:49:24.306Z,998.31
2019-03-27T09:50:24.242Z,998.27
2019-03-27T09:51:24.184Z,998.26
2019-03-27T09:52:24.129Z,998.24
2019-03-27T09:53:24.067Z,998.29
2019-03-27T09:54:24.007Z,998.31
2019-03-27T09:55:24.025Z,998.32
2019-03-27T09:56:23.887Z,998.29
2019-03-27T09:57:23.828Z,998.27
2019-03-27T09:58:23.770Z,998.23
2019-03-27T09:59:23.717Z,998.20
2019-03-27T10:00:23.651Z,998.19
2019-03-27T10:01:23.591Z,998.19
2019-03-27T10:02:23.531Z,998.22
2019-03-27T10:03:23.472Z,998.18
2019-03-27T10:04:23.414Z,998.23
2019-03-27T10:05:23.354Z,998.20
2019-03-27T10:06:23.296Z,998.21
2019-03-27T10:07:23.235Z,998.18
2019-03-27T10:08:23.179Z,998.18
2019-03-27T10:09:23.120Z,998.21
2019-03-27T10:10:23.056Z,998.21
2019-03-27T10:11:23.949Z,998.19
2019-03-27T10:12:22.940Z,998.23
2019-03-27T10:13:22.880Z,998.24
2019-03-27T10:14:22.819Z,998.22
2019-03-27T10:15:22.762Z,998.16
2019-03-27T10:16:22.702Z,998.21
2019-03-27T10:17:22.643Z,998.19
2019-03-27T10:18:22.586Z,998.19
2019-03-27T10:19:23.448Z,998.18
2019-03-27T10:20:22.465Z,998.19
2019-03-27T10:21:22.405Z,998.22
2019-03-27T10:22:22.346Z,998.25
2019-03-27T10:23:22.287Z,998.20
2019-03-27T10:24:22.232Z,998.19
2019-03-27T10:25:22.168Z,998.19
2019-03-27T10:26:22.112Z,998.21
2019-03-27T10:27:22.052Z,998.19
2019-03-27T10:28:21.992Z,998.21
2019-03-27T10:29:21.932Z,998.23
2019-03-27T10:30:21.873Z,998.25
2019-03-27T10:31:21.818Z,998.21
2019-03-27T10:32:21.753Z,998.22
2019-03-27T10:33:21.695Z,998.21
2019-03-27T10:34:21.639Z,998.22
2019-03-27T10:35:21.578Z,998.22
2019-03-27T10:36:21.522Z,998.25
2019-03-27T10:37:21.459Z,998.25
2019-03-27T10:38:21.398Z,998.29
2019-03-27T10:39:21.340Z,998.28
2019-03-27T10:40:21.280Z,998.26
2019-03-27T10:41:21.220Z,998.26
2019-03-27T10:42:21.160Z,998.26
2019-03-27T10:43:21.103Z,998.22
2019-03-27T10:44:21.044Z,998.23
2019-03-27T10:45:20.985Z,998.24
2019-03-27T10:46:20.923Z,998.23
2019-03-27T10:47:20.866Z,998.24
2019-03-27T10:48:20.808Z,998.21
2019-03-27T10:49:20.747Z,998.26
2019-03-27T10:50:20.687Z,998.23
2019-03-27T10:51:20.630Z,998.26
2019-03-27T10:52:20.570Z,998.26
2019-03-27T10:53:20.510Z,998.28
2019-03-27T10:54:20.449Z,998.26
2019-03-27T10:55:20.391Z,998.28
2019-03-27T10:56:20.333Z,998.25
2019-03-27T10:57:20.278Z,998.31
2019-03-27T10:58:20.215Z,998.26
2019-03-27T10:59:20.154Z,998.28
2019-03-27T11:00:20.095Z,998.26
2019-03-27T11:01:20.035Z,998.22
2019-03-27T11:02:19.975Z,998.21
2019-03-27T11:03:19.918Z,998.29
2019-03-27T11:04:19.858Z,998.24
2019-03-27T11:05:19.800Z,998.24
2019-03-27T11:06:19.739Z,998.22
2019-03-27T11:07:19.681Z,998.22
2019-03-27T11:08:19.622Z,998.23
2019-03-27T11:09:19.566Z,998.22
2019-03-27T11:10:19.502Z,998.20
2019-03-27T11:11:19.443Z,998.22
2019-03-27T11:12:19.386Z,998.25
2019-03-27T11:13:19.326Z,998.22
2019-03-27T11:14:19.265Z,998.26
2019-03-27T11:15:19.209Z,998.29
2019-03-27T11:16:19.151Z,998.28
2019-03-27T11:17:19.093Z,998.31
2019-03-27T11:18:19.034Z,998.30
2019-03-27T11:19:18.973Z,998.26
2019-03-27T11:20:30.317Z,998.27
2019-03-27T11:21:18.853Z,998.29
2019-03-27T11:22:18.795Z,998.29
2019-03-27T11:23:18.735Z,998.24
2019-03-27T11:24:18.675Z,998.29
2019-03-27T11:25:18.616Z,998.30
2019-03-27T11:26:18.557Z,998.29
2019-03-27T11:27:18.499Z,998.28
2019-03-27T11:28:18.439Z,998.28
2019-03-27T11:29:18.380Z,998.28
2019-03-27T11:30:18.319Z,998.26
2019-03-27T11:31:18.261Z,998.27
2019-03-27T11:32:18.203Z,998.30
2019-03-27T11:33:18.143Z,998.28
2019-03-27T11:34:18.087Z,998.28
2019-03-27T11:35:18.026Z,998.26
2019-03-27T11:36:17.966Z,998.27
2019-03-27T11:37:17.906Z,998.22
2019-03-27T11:38:17.845Z,998.23
2019-03-27T11:39:17.787Z,998.26
2019-03-27T11:40:17.727Z,998.24
2019-03-27T11:41:17.670Z,998.24
2019-03-27T11:42:17.609Z,998.23
2019-03-27T11:43:17.551Z,998.26
2019-03-27T11:44:17.493Z,998.22
2019-03-27T11:45:17.432Z,998.20
2019-03-27T11:46:17.375Z,998.23
2019-03-27T11:47:17.314Z,998.20
2019-03-27T11:48:17.261Z,998.23
2019-03-27T11:49:17.200Z,998.24
2019-03-27T11:50:17.137Z,998.19
2019-03-27T11:51:17.077Z,998.21
2019-03-27T11:52:17.018Z,998.21
2019-03-27T11:53:16.963Z,998.21
2019-03-27T11:54:16.900Z,998.22
2019-03-27T11:55:16.840Z,998.20
2019-03-27T11:56:16.781Z,998.21
2019-03-27T11:57:16.722Z,998.19
2019-03-27T11:58:16.662Z,998.22
2019-03-27T11:59:16.620Z,998.20
2019-03-27T12:00:16.548Z,998.20
2019-03-27T12:01:17.469Z,998.21
2019-03-27T12:02:16.426Z,998.21
2019-03-27T12:03:16.369Z,998.19
2019-03-27T12:04:16.309Z,998.21
2019-03-27T12:05:16.251Z,998.19
2019-03-27T12:06:16.189Z,998.19
2019-03-27T12:07:16.134Z,998.20
2019-03-27T12:08:16.073Z,998.13
2019-03-27T12:09:16.013Z,998.15
2019-03-27T12:10:15.953Z,998.16
2019-03-27T12:11:15.893Z,998.13
2019-03-27T12:12:15.835Z,998.15
2019-03-27T12:13:15.782Z,998.12
2019-03-27T12:14:15.716Z,998.14
2019-03-27T12:15:15.657Z,998.12
2019-03-27T12:16:15.599Z,998.12
2019-03-27T12:17:15.541Z,998.14
2019-03-27T12:18:15.479Z,998.13
2019-03-27T12:19:15.421Z,998.11
2019-03-27T12:20:15.363Z,998.12
2019-03-27T12:21:15.309Z,998.10
2019-03-27T12:22:15.245Z,998.10
2019-03-27T12:23:15.186Z,998.10
2019-03-27T12:24:15.125Z,998.09
2019-03-27T12:25:15.068Z,998.12
2019-03-27T12:26:15.009Z,998.10
2019-03-27T12:27:14.947Z,998.11
2019-03-27T12:28:14.890Z,998.12